createdAt,value
2019-06-01T00:00:51.531Z,101780.09
2019-06-01T00:03:21.557Z,101777.94
2019-06-01T00:05:51.555Z,101774.98
2019-06-01T00:08:21.639Z,101771.70
2019-06-01T00:10:51.641Z,101771.70
2019-06-01T00:13:21.674Z,101766.19
2019-06-01T00:15:51.710Z,101763.70
2019-06-01T00:18:21.741Z,101758.16
2019-06-01T00:20:52.735Z,101749.69
2019-06-01T00:23:22.833Z,101756.52
2019-06-01T00:25:52.979Z,101751.65
2019-06-01T00:28:23.467Z,101753.55
2019-06-01T00:30:53.548Z,101753.80
2019-06-01T00:33:23.594Z,101754.09
2019-06-01T00:35:53.629Z,101754.75
2019-06-01T00:38:23.664Z,101753.86
2019-06-01T00:40:53.696Z,101755.56
2019-06-01T00:43:23.784Z,101755.73
2019-06-01T00:45:53.850Z,101759.55
2019-06-01T00:48:23.960Z,101758.78
2019-06-01T00:50:53.996Z,101750.06
2019-06-01T00:53:24.065Z,101756.05
2019-06-01T00:55:54.092Z,101754.58
2019-06-01T00:58:24.184Z,101751.30
2019-06-01T01:00:55.223Z,101757.86
2019-06-01T01:03:25.432Z,101755.12
2019-06-01T01:05:55.462Z,101760.00
2019-06-01T01:08:25.522Z,101753.48
2019-06-01T01:10:55.584Z,101760.05
2019-06-01T01:13:27.044Z,101759.73
2019-06-01T01:15:57.059Z,101757.33
2019-06-01T01:18:27.122Z,101760.05
2019-06-01T01:20:57.226Z,101759.48
2019-06-01T01:23:27.328Z,101759.22
2019-06-01T01:25:57.316Z,101760.59
2019-06-01T01:28:27.384Z,101760.05
2019-06-01T01:31:10.706Z,101766.55
2019-06-01T01:33:29.133Z,101764.05
2019-06-01T01:35:59.184Z,101762.46
2019-06-01T01:38:29.217Z,101755.34
2019-06-01T01:40:59.490Z,101758.06
2019-06-01T01:43:29.564Z,101753.70
2019-06-01T01:45:59.588Z,101754.50
2019-06-01T01:48:29.647Z,101752.00
2019-06-01T01:50:59.707Z,101751.20
2019-06-01T01:53:29.742Z,101750.88
2019-06-01T01:55:59.775Z,101752.52
2019-06-01T01:58:30.202Z,101749.85
2019-06-01T02:01:04.972Z,101748.00
2019-06-01T02:03:32.007Z,101755.64
2019-06-01T02:06:03.336Z,101749.14
2019-06-01T02:08:33.588Z,101745.33
2019-06-01T02:11:03.702Z,101749.42
2019-06-01T02:13:34.005Z,101742.34
2019-06-01T02:16:04.360Z,101742.58
2019-06-01T02:18:34.612Z,101740.97
2019-06-01T02:21:04.693Z,101745.57
2019-06-01T02:23:34.844Z,101742.86
2019-06-01T02:26:04.971Z,101740.12
2019-06-01T02:28:35.094Z,101745.33
2019-06-01T02:31:05.170Z,101741.75
2019-06-01T02:33:35.159Z,101745.86
2019-06-01T02:36:05.605Z,101736.88
2019-06-01T02:38:35.618Z,101738.75
2019-06-01T02:41:05.879Z,101734.11
2019-06-01T02:43:35.996Z,101732.75
2019-06-01T02:46:07.480Z,101733.83
2019-06-01T02:48:37.617Z,101728.66
2019-06-01T02:51:07.760Z,101728.63
2019-06-01T02:53:37.781Z,101725.67
2019-06-01T02:56:07.907Z,101728.39
2019-06-01T02:58:37.997Z,101734.41
2019-06-01T03:01:56.848Z,101732.21
2019-06-01T03:04:16.636Z,101728.66
2019-06-01T03:06:48.699Z,101739.52
2019-06-01T03:09:19.833Z,101736.01
2019-06-01T03:11:51.959Z,101738.42
2019-06-01T03:14:23.289Z,101731.11
2019-06-01T03:16:53.510Z,101743.07
2019-06-01T03:19:24.651Z,101743.59
2019-06-01T03:21:57.413Z,101746.84
2019-06-01T03:24:27.491Z,101741.13
2019-06-01T03:26:57.534Z,101740.88
2019-06-01T03:29:30.707Z,101739.52
2019-06-01T03:32:19.087Z,101740.27
2019-06-01T03:34:32.490Z,101735.71
2019-06-01T03:37:02.868Z,101738.42
2019-06-01T03:39:33.329Z,101734.26
2019-06-01T03:42:03.526Z,101735.67
2019-06-01T03:44:33.525Z,101736.46
2019-06-01T03:47:03.933Z,101726.64
2019-06-01T03:49:34.075Z,101730.16
2019-06-01T03:52:04.845Z,101721.69
2019-06-01T03:54:34.971Z,101726.78
2019-06-01T03:57:05.326Z,101726.52
2019-06-01T03:59:35.481Z,101730.44
2019-06-01T04:02:05.546Z,101725.29
2019-06-01T04:04:35.591Z,101731.06
2019-06-01T04:07:06.362Z,101734.39
2019-06-01T04:09:36.514Z,101725.30
2019-06-01T04:12:07.675Z,101729.83
2019-06-01T04:14:37.796Z,101730.74
2019-06-01T04:17:08.173Z,101733.73
2019-06-01T04:19:38.231Z,101736.95
2019-06-01T04:22:10.178Z,101741.48
2019-06-01T04:24:40.247Z,101739.09
2019-06-01T04:27:10.741Z,101731.75
2019-06-01T04:29:40.751Z,101732.20
2019-06-01T04:32:10.790Z,101737.36
2019-06-01T04:34:40.802Z,101728.27
2019-06-01T04:37:11.304Z,101727.99
2019-06-01T04:39:41.389Z,101729.87
2019-06-01T04:42:11.885Z,101731.81
2019-06-01T04:44:42.127Z,101721.42
2019-06-01T04:47:12.548Z,101727.97
2019-06-01T04:49:42.688Z,101727.39
2019-06-01T04:52:13.569Z,101721.97
2019-06-01T04:54:43.751Z,101727.41
2019-06-01T04:57:15.034Z,101726.07
2019-06-01T04:59:45.355Z,101723.62
2019-06-01T05:02:15.375Z,101725.61
2019-06-01T05:04:45.457Z,101723.17
2019-06-01T05:07:15.650Z,101722.63
2019-06-01T05:09:45.626Z,101722.08
2019-06-01T05:12:15.720Z,101719.03
2019-06-01T05:14:45.718Z,101720.73
2019-06-01T05:17:16.731Z,101721.02
2019-06-01T05:19:47.122Z,101727.28
2019-06-01T05:22:17.267Z,101728.12
2019-06-01T05:24:47.279Z,101731.94
2019-06-01T05:27:17.471Z,101733.58
2019-06-01T05:29:47.550Z,101738.20
2019-06-01T05:32:18.737Z,101734.34
2019-06-01T05:34:48.891Z,101729.75
2019-06-01T05:37:18.949Z,101728.92
2019-06-01T05:39:48.958Z,101725.14
2019-06-01T05:42:19.116Z,101728.96
2019-06-01T05:44:49.227Z,101721.31
2019-06-01T05:47:19.288Z,101732.75
2019-06-01T05:49:49.351Z,101726.50
2019-06-01T05:52:19.401Z,101727.59
2019-06-01T05:54:49.442Z,101727.59
2019-06-01T05:57:19.541Z,101730.31
2019-06-01T05:59:49.579Z,101728.97
2019-06-01T06:02:19.679Z,101728.13
2019-06-01T06:04:49.681Z,101727.02
2019-06-01T06:07:19.756Z,101726.48
2019-06-01T06:09:49.792Z,101726.25
2019-06-01T06:12:19.823Z,101721.04
2019-06-01T06:14:49.862Z,101721.89
2019-06-01T06:17:21.659Z,101722.95
2019-06-01T06:19:51.676Z,101725.14
2019-06-01T06:22:22.436Z,101722.95
2019-06-01T06:24:52.618Z,101723.24
2019-06-01T06:27:22.806Z,101728.70
2019-06-01T06:29:52.910Z,101726.23
2019-06-01T06:32:23.628Z,101726.77
2019-06-01T06:34:53.673Z,101720.80
2019-06-01T06:37:23.937Z,101715.58
2019-06-01T06:39:53.968Z,101718.05
2019-06-01T06:42:24.466Z,101713.13
2019-06-01T06:44:54.590Z,101708.22
2019-06-01T06:47:25.098Z,101711.21
2019-06-01T06:49:55.290Z,101711.22
2019-06-01T06:52:25.724Z,101715.56
2019-06-01T06:54:55.893Z,101721.86
2019-06-01T06:57:26.270Z,101713.34
2019-06-01T06:59:56.493Z,101707.67
2019-06-01T07:02:27.086Z,101712.52
2019-06-01T07:04:57.337Z,101702.98
2019-06-01T07:07:27.894Z,101694.80
2019-06-01T07:09:58.134Z,101690.15
2019-06-01T07:12:28.167Z,101691.77
2019-06-01T07:14:58.235Z,101691.22
2019-06-01T07:17:28.316Z,101688.15
2019-06-01T07:19:58.396Z,101692.14
2019-06-01T07:22:28.472Z,101690.22
2019-06-01T07:24:58.511Z,101695.57
2019-06-01T07:27:28.575Z,101695.49
2019-06-01T07:29:58.586Z,101691.78
2019-06-01T07:32:28.975Z,101696.18
2019-06-01T07:35:01.211Z,101692.44
2019-06-01T07:37:30.807Z,101679.62
2019-06-01T07:40:01.590Z,101694.09
2019-06-01T07:42:32.973Z,101703.97
2019-06-01T07:45:03.205Z,101694.67
2019-06-01T07:47:34.089Z,101691.75
2019-06-01T07:50:04.224Z,101691.30
2019-06-01T07:52:34.624Z,101683.47
2019-06-01T07:55:04.905Z,101693.67
2019-06-01T07:57:35.034Z,101691.63
2019-06-01T08:00:05.725Z,101690.00
2019-06-01T08:02:35.797Z,101697.73
2019-06-01T08:05:06.436Z,101694.85
2019-06-01T08:07:36.454Z,101689.64
2019-06-01T08:10:06.701Z,101690.33
2019-06-01T08:12:36.705Z,101699.67
2019-06-01T08:15:06.833Z,101699.55
2019-06-01T08:17:36.891Z,101703.61
2019-06-01T08:20:07.298Z,101692.19
2019-06-01T08:22:37.338Z,101697.80
2019-06-01T08:25:07.608Z,101691.55
2019-06-01T08:27:37.655Z,101690.30
2019-06-01T08:30:08.171Z,101699.92
2019-06-01T08:32:38.208Z,101697.08
2019-06-01T08:35:09.743Z,101695.11
2019-06-01T08:37:39.921Z,101708.06
2019-06-01T08:40:10.223Z,101693.34
2019-06-01T08:42:40.308Z,101682.95
2019-06-01T08:45:11.454Z,101695.83
2019-06-01T08:47:41.525Z,101686.38
2019-06-01T08:50:11.856Z,101686.72
2019-06-01T08:52:41.989Z,101687.50
2019-06-01T08:55:12.048Z,101686.77
2019-06-01T08:57:42.267Z,101681.98
2019-06-01T09:00:12.471Z,101671.83
2019-06-01T09:02:42.508Z,101675.00
2019-06-01T09:05:23.777Z,101673.45
2019-06-01T09:07:44.426Z,101673.67
2019-06-01T09:10:14.613Z,101686.46
2019-06-01T09:12:44.679Z,101672.33
2019-06-01T09:15:16.506Z,101674.64
2019-06-01T09:17:46.547Z,101674.63
2019-06-01T09:20:17.056Z,101675.89
2019-06-01T09:22:48.189Z,101665.63
2019-06-01T09:25:18.490Z,101656.30
2019-06-01T09:27:48.545Z,101650.52
2019-06-01T09:30:18.701Z,101646.01
2019-06-01T09:32:48.754Z,101658.02
2019-06-01T09:35:20.671Z,101655.32
2019-06-01T09:37:50.773Z,101652.78
2019-06-01T09:40:23.608Z,101651.84
2019-06-01T09:42:53.768Z,101646.47
2019-06-01T09:45:23.831Z,101652.67
2019-06-01T09:47:53.898Z,101654.30
2019-06-01T09:50:23.940Z,101659.44
2019-06-01T09:52:53.955Z,101652.28
2019-06-01T09:55:24.045Z,101650.52
2019-06-01T09:57:54.131Z,101650.41
2019-06-01T10:00:24.999Z,101642.71
2019-06-01T10:02:55.032Z,101648.03
2019-06-01T10:05:25.132Z,101651.36
2019-06-01T10:07:55.320Z,101645.56
2019-06-01T10:10:25.495Z,101641.80
2019-06-01T10:12:55.538Z,101637.99
2019-06-01T10:15:25.685Z,101634.14
2019-06-01T10:17:55.757Z,101631.13
2019-06-01T10:20:25.922Z,101636.11
2019-06-01T10:22:55.990Z,101637.69
2019-06-01T10:25:26.025Z,101635.51
2019-06-01T10:27:56.092Z,101629.13
2019-06-01T10:30:26.138Z,101628.00
2019-06-01T10:32:56.220Z,101641.78
2019-06-01T10:35:26.367Z,101627.88
2019-06-01T10:37:56.434Z,101622.35
2019-06-01T10:40:26.460Z,101624.92
2019-06-01T10:42:56.534Z,101620.44
2019-06-01T10:45:26.745Z,101624.08
2019-06-01T10:47:56.891Z,101615.95
2019-06-01T10:50:26.913Z,101618.41
2019-06-01T10:52:57.061Z,101616.06
2019-06-01T10:55:27.110Z,101613.02
2019-06-01T10:57:57.833Z,101610.73
2019-06-01T11:00:38.720Z,101614.62
2019-06-01T11:02:59.722Z,101614.48
2019-06-01T11:05:29.746Z,101612.08
2019-06-01T11:07:59.795Z,101612.77
2019-06-01T11:10:29.814Z,101606.73
2019-06-01T11:12:59.900Z,101604.83
2019-06-01T11:15:29.978Z,101595.66
2019-06-01T11:18:00.126Z,101605.05
2019-06-01T11:20:30.161Z,101603.91
2019-06-01T11:23:02.449Z,101604.59
2019-06-01T11:25:33.430Z,101600.65
2019-06-01T11:28:03.477Z,101593.33
2019-06-01T11:30:33.608Z,101597.67
2019-06-01T11:33:03.770Z,101589.09
2019-06-01T11:35:34.939Z,101585.87
2019-06-01T11:38:05.402Z,101586.43
2019-06-01T11:40:36.453Z,101584.31
2019-06-01T11:43:06.670Z,101588.88
2019-06-01T11:45:36.704Z,101585.30
2019-06-01T11:48:06.746Z,101580.99
2019-06-01T11:50:37.013Z,101567.55
2019-06-01T11:53:07.063Z,101582.05
2019-06-01T11:55:37.112Z,101571.52
2019-06-01T11:58:07.194Z,101569.66
2019-06-01T12:00:37.589Z,101566.08
2019-06-01T12:03:07.783Z,101571.67
2019-06-01T12:05:37.972Z,101561.80
2019-06-01T12:08:08.030Z,101567.05
2019-06-01T12:10:38.950Z,101559.28
2019-06-01T12:13:09.111Z,101564.72
2019-06-01T12:15:40.299Z,101572.83
2019-06-01T12:18:10.510Z,101560.96
2019-06-01T12:20:40.804Z,101569.09
2019-06-01T12:23:10.928Z,101566.09
2019-06-01T12:25:42.111Z,101562.32
2019-06-01T12:28:12.318Z,101562.73
2019-06-01T12:30:42.324Z,101559.64
2019-06-01T12:33:12.411Z,101558.38
2019-06-01T12:35:42.463Z,101549.37
2019-06-01T12:38:12.493Z,101554.80
2019-06-01T12:40:43.306Z,101547.23
2019-06-01T12:43:13.402Z,101543.20
2019-06-01T12:45:43.773Z,101538.59
2019-06-01T12:48:13.853Z,101544.11
2019-06-01T12:50:47.802Z,101541.56
2019-06-01T12:53:15.632Z,101540.66
2019-06-01T12:55:46.741Z,101536.81
2019-06-01T12:58:16.898Z,101537.12
2019-06-01T13:00:48.254Z,101532.00
2019-06-01T13:03:18.522Z,101533.50
2019-06-01T13:05:49.673Z,101532.67
2019-06-01T13:08:19.920Z,101534.64
2019-06-01T13:10:50.060Z,101527.66
2019-06-01T13:13:19.987Z,101514.14
2019-06-01T13:15:51.224Z,101512.38
2019-06-01T13:18:21.455Z,101515.97
2019-06-01T13:20:51.723Z,101507.67
2019-06-01T13:23:21.722Z,101501.25
2019-06-01T13:25:51.907Z,101504.91
2019-06-01T13:28:37.311Z,101498.13
2019-06-01T13:30:53.614Z,101504.74
2019-06-01T13:33:23.574Z,101501.81
2019-06-01T13:35:53.575Z,101495.45
2019-06-01T13:38:23.545Z,101492.45
2019-06-01T13:40:53.569Z,101501.98
2019-06-01T13:43:23.626Z,101490.22
2019-06-01T13:45:53.700Z,101489.98
2019-06-01T13:48:23.683Z,101496.06
2019-06-01T13:50:54.006Z,101490.67
2019-06-01T13:53:24.081Z,101489.72
2019-06-01T13:55:54.890Z,101491.52
2019-06-01T13:58:24.948Z,101493.39
2019-06-01T14:00:54.933Z,101491.66
2019-06-01T14:03:24.907Z,101496.53
2019-06-01T14:05:55.173Z,101491.45
2019-06-01T14:08:29.002Z,101486.28
2019-06-01T14:10:56.957Z,101490.91
2019-06-01T14:13:26.955Z,101484.59
2019-06-01T14:15:56.941Z,101487.78
2019-06-01T14:18:26.889Z,101495.52
2019-06-01T14:20:56.875Z,101481.37
2019-06-01T14:23:26.848Z,101490.34
2019-06-01T14:25:56.855Z,101486.91
2019-06-01T14:28:26.817Z,101481.83
2019-06-01T14:30:56.837Z,101482.62
2019-06-01T14:33:27.019Z,101498.54
2019-06-01T14:35:57.002Z,101496.34
2019-06-01T14:38:26.980Z,101496.11
2019-06-01T14:40:57.409Z,101494.13
2019-06-01T14:43:27.531Z,101494.95
2019-06-01T14:45:58.100Z,101488.78
2019-06-01T14:48:28.062Z,101480.29
2019-06-01T14:50:58.047Z,101490.30
2019-06-01T14:53:28.059Z,101486.41
2019-06-01T14:55:58.074Z,101490.07
2019-06-01T14:58:28.032Z,101489.52
2019-06-01T15:00:58.564Z,101484.87
2019-06-01T15:03:28.589Z,101484.02
2019-06-01T15:05:58.685Z,101476.83
2019-06-01T15:08:28.943Z,101474.08
2019-06-01T15:10:58.976Z,101477.63
2019-06-01T15:13:28.967Z,101480.39
2019-06-01T15:15:58.945Z,101478.91
2019-06-01T15:18:28.923Z,101479.27
2019-06-01T15:20:58.909Z,101477.63
2019-06-01T15:23:28.881Z,101473.75
2019-06-01T15:25:58.857Z,101469.89
2019-06-01T15:28:28.861Z,101471.05
2019-06-01T15:30:59.289Z,101470.39
2019-06-01T15:33:29.509Z,101464.96
2019-06-01T15:35:59.820Z,101467.53
2019-06-01T15:38:29.836Z,101463.98
2019-06-01T15:41:00.568Z,101468.64
2019-06-01T15:43:30.608Z,101471.83
2019-06-01T15:46:01.644Z,101471.88
2019-06-01T15:48:32.070Z,101474.12
2019-06-01T15:51:07.048Z,101473.44
2019-06-01T15:53:33.736Z,101474.49
2019-06-01T15:56:03.690Z,101464.18
2019-06-01T15:58:33.704Z,101463.77
2019-06-01T16:01:03.707Z,101460.98
2019-06-01T16:03:34.451Z,101455.78
2019-06-01T16:06:04.685Z,101455.13
2019-06-01T16:08:34.689Z,101464.77
2019-06-01T16:11:06.477Z,101458.52
2019-06-01T16:13:36.337Z,101454.08
2019-06-01T16:16:06.583Z,101456.48
2019-06-01T16:18:36.655Z,101462.69
2019-06-01T16:21:06.629Z,101451.36
2019-06-01T16:23:49.446Z,101452.83
2019-06-01T16:26:15.789Z,101451.11
2019-06-01T16:28:40.002Z,101449.68
2019-06-01T16:31:10.080Z,101446.50
2019-06-01T16:33:40.083Z,101447.23
2019-06-01T16:36:10.093Z,101447.83
2019-06-01T16:38:40.088Z,101453.02
2019-06-01T16:41:10.090Z,101453.94
2019-06-01T16:43:40.105Z,101458.53
2019-06-01T16:46:10.080Z,101456.12
2019-06-01T16:48:40.054Z,101457.80
2019-06-01T16:51:10.064Z,101460.50
2019-06-01T16:53:40.049Z,101450.39
2019-06-01T16:56:10.098Z,101453.25
2019-06-01T16:58:40.087Z,101450.44
2019-06-01T17:01:10.119Z,101459.91
2019-06-01T17:03:40.090Z,101453.72
2019-06-01T17:06:10.096Z,101454.48
2019-06-01T17:08:40.163Z,101463.47
2019-06-01T17:11:10.134Z,101461.84
2019-06-01T17:13:40.134Z,101461.03
2019-06-01T17:16:10.115Z,101474.37
2019-06-01T17:18:40.102Z,101471.14
2019-06-01T17:21:10.094Z,101476.17
2019-06-01T17:23:40.085Z,101476.06
2019-06-01T17:26:10.117Z,101475.11
2019-06-01T17:28:40.139Z,101486.44
2019-06-01T17:31:10.132Z,101485.16
2019-06-01T17:33:40.116Z,101483.92
2019-06-01T17:36:10.128Z,101484.94
2019-06-01T17:38:40.104Z,101486.33
2019-06-01T17:41:10.118Z,101484.08
2019-06-01T17:43:40.094Z,101482.81
2019-06-01T17:46:10.216Z,101482.55
2019-06-01T17:48:40.339Z,101492.50
2019-06-01T17:51:10.361Z,101489.34
2019-06-01T17:53:40.330Z,101494.38
2019-06-01T17:56:10.716Z,101492.98
2019-06-01T17:58:40.715Z,101500.33
2019-06-01T18:01:12.017Z,101494.39
2019-06-01T18:03:42.116Z,101492.23
2019-06-01T18:06:12.907Z,101490.29
2019-06-01T18:08:42.997Z,101491.85
2019-06-01T18:11:12.977Z,101493.20
2019-06-01T18:13:42.965Z,101495.85
2019-06-01T18:16:13.234Z,101500.70
2019-06-01T18:18:43.348Z,101497.91
2019-06-01T18:21:13.346Z,101501.02
2019-06-01T18:23:43.331Z,101505.55
2019-06-01T18:26:13.415Z,101501.87
2019-06-01T18:28:43.408Z,101500.42
2019-06-01T18:31:13.419Z,101503.20
2019-06-01T18:33:43.380Z,101508.88
2019-06-01T18:36:13.743Z,101511.42
2019-06-01T18:38:43.779Z,101511.59
2019-06-01T18:41:18.271Z,101513.34
2019-06-01T18:43:45.513Z,101512.83
2019-06-01T18:46:15.529Z,101510.31
2019-06-01T18:48:45.517Z,101514.29
2019-06-01T18:51:15.533Z,101516.18
2019-06-01T18:53:45.525Z,101508.28
2019-06-01T18:56:15.567Z,101508.48
2019-06-01T18:58:45.590Z,101519.39
2019-06-01T19:01:20.604Z,101517.52
2019-06-01T19:03:47.361Z,101514.05
2019-06-01T19:06:17.358Z,101520.34
2019-06-01T19:08:47.395Z,101515.25
2019-06-01T19:11:29.391Z,101506.09
2019-06-01T19:13:49.168Z,101517.53
2019-06-01T19:16:19.175Z,101525.16
2019-06-01T19:18:49.187Z,101528.78
2019-06-01T19:21:19.205Z,101531.00
2019-06-01T19:23:49.249Z,101534.52
2019-06-01T19:26:19.269Z,101528.70
2019-06-01T19:28:49.259Z,101532.86
2019-06-01T19:31:19.305Z,101536.19
2019-06-01T19:33:49.297Z,101539.48
2019-06-01T19:36:19.665Z,101540.67
2019-06-01T19:38:50.276Z,101545.33
2019-06-01T19:41:20.287Z,101549.24
2019-06-01T19:43:50.316Z,101548.30
2019-06-01T19:46:20.333Z,101554.67
2019-06-01T19:48:50.365Z,101550.77
2019-06-01T19:51:20.353Z,101560.16
2019-06-01T19:53:50.383Z,101562.09
2019-06-01T19:56:21.763Z,101558.03
2019-06-01T19:58:51.917Z,101560.23
2019-06-01T20:01:22.712Z,101559.12
2019-06-01T20:03:52.940Z,101556.33
2019-06-01T20:06:23.336Z,101549.70
2019-06-01T20:08:53.372Z,101548.08
2019-06-01T20:11:23.377Z,101556.31
2019-06-01T20:13:53.409Z,101550.51
2019-06-01T20:16:23.396Z,101553.09
2019-06-01T20:18:53.382Z,101549.67
2019-06-01T20:21:23.424Z,101543.47
2019-06-01T20:23:53.418Z,101549.59
2019-06-01T20:26:38.983Z,101543.16
2019-06-01T20:28:55.142Z,101546.34
2019-06-01T20:31:25.093Z,101542.80
2019-06-01T20:33:56.390Z,101542.88
2019-06-01T20:36:28.737Z,101540.39
2019-06-01T20:39:03.801Z,101544.42
2019-06-01T20:41:30.101Z,101549.67
2019-06-01T20:44:00.138Z,101550.38
2019-06-01T20:46:30.138Z,101554.37
2019-06-01T20:49:00.182Z,101558.63
2019-06-01T20:51:30.641Z,101556.48
2019-06-01T20:54:00.647Z,101560.67
2019-06-01T20:56:30.646Z,101553.62
2019-06-01T20:59:00.793Z,101555.16
2019-06-01T21:01:30.768Z,101555.19
2019-06-01T21:04:03.242Z,101553.62
2019-06-01T21:06:33.355Z,101550.14
2019-06-01T21:09:03.818Z,101549.07
2019-06-01T21:11:33.847Z,101546.19
2019-06-01T21:14:04.651Z,101556.27
2019-06-01T21:16:34.830Z,101553.58
2019-06-01T21:19:04.937Z,101559.70
2019-06-01T21:21:34.972Z,101555.95
2019-06-01T21:24:07.511Z,101549.01
2019-06-01T21:26:37.529Z,101551.63
2019-06-01T21:29:07.597Z,101555.20
2019-06-01T21:31:37.659Z,101552.30
2019-06-01T21:34:07.899Z,101554.51
2019-06-01T21:36:41.545Z,101548.78
2019-06-01T21:39:09.633Z,101555.09
2019-06-01T21:41:39.611Z,101560.53
2019-06-01T21:44:09.876Z,101556.84
2019-06-01T21:46:39.822Z,101560.04
2019-06-01T21:49:09.930Z,101552.66
2019-06-01T21:51:40.008Z,101560.20
2019-06-01T21:54:10.023Z,101566.00
2019-06-01T21:56:39.989Z,101561.83
2019-06-01T21:59:10.054Z,101559.77
2019-06-01T22:01:40.117Z,101554.41
2019-06-01T22:04:10.141Z,101551.81
2019-06-01T22:06:40.127Z,101546.53
2019-06-01T22:09:10.156Z,101551.33
2019-06-01T22:11:40.246Z,101554.15
2019-06-01T22:14:10.331Z,101548.78
2019-06-01T22:16:40.335Z,101556.16
2019-06-01T22:19:10.350Z,101552.34
2019-06-01T22:21:40.323Z,101549.88
2019-06-01T22:24:10.362Z,101553.25
2019-06-01T22:26:40.334Z,101549.44
2019-06-01T22:29:10.418Z,101548.84
2019-06-01T22:31:40.388Z,101543.38
2019-06-01T22:34:10.460Z,101538.51
2019-06-01T22:36:40.479Z,101544.69
2019-06-01T22:39:10.483Z,101548.34
2019-06-01T22:41:40.545Z,101543.02
2019-06-01T22:44:10.602Z,101547.08
2019-06-01T22:46:40.604Z,101544.16
2019-06-01T22:49:10.629Z,101542.16
2019-06-01T22:51:40.632Z,101547.84
2019-06-01T22:54:10.614Z,101542.15
2019-06-01T22:56:40.618Z,101536.58
2019-06-01T22:59:10.625Z,101535.41
2019-06-01T23:01:40.624Z,101535.95
2019-06-01T23:04:10.640Z,101536.89
2019-06-01T23:06:40.593Z,101541.23
2019-06-01T23:09:10.657Z,101531.50
2019-06-01T23:11:40.652Z,101539.39
2019-06-01T23:14:10.628Z,101537.58
2019-06-01T23:16:40.629Z,101545.07
2019-06-01T23:19:10.602Z,101545.16
2019-06-01T23:21:40.618Z,101541.00
2019-06-01T23:24:10.604Z,101538.13
2019-06-01T23:26:40.611Z,101545.05
2019-06-01T23:29:10.600Z,101534.80
2019-06-01T23:31:40.604Z,101540.20
2019-06-01T23:34:10.586Z,101539.30
2019-06-01T23:36:40.597Z,101532.78
2019-06-01T23:39:10.579Z,101525.20
2019-06-01T23:41:40.569Z,101530.70
2019-06-01T23:44:12.548Z,101520.25
2019-06-01T23:46:42.286Z,101519.73
2019-06-01T23:49:12.265Z,101521.34
2019-06-01T23:51:42.267Z,101515.64
2019-06-01T23:54:12.237Z,101513.12
2019-06-01T23:56:42.255Z,101514.44
2019-06-01T23:59:12.256Z,101517.00
